Stark City, MO (64866)

10:39 PM CST del 02 Dicembre 2016 (GMT -0600)
South east of Granby | | Change Station

Alt. 1217 ft 36.89 °N, 94.23 °W | Updated 14 seconds ago

Mostly Cloudy
Molto nuvoloso
45.3 °F
Sembra 42 °F
N
6.4
Vento Variabile Vento da ENE
Gusts 8.5 mph

Oggi
Massima -- | Minima -- °F
--% Possibilità di precip.
Ieri
Massima -- | Minima -- °F
Precip. -- in
Pressione 30.28 in
Visibilità 10.0 miglia
Nuvole Molto nuvoloso 6000 ft
Raffreddamento del vento 42 °F
Punto di rugiada 26 °F
Umidità 47%
Piovosità 0.00 in
Spessore del manto nevoso Non disponibile.
7:12 AM 5:00 PM
Luna crescente, 12% visible
METAR KHFJ 030410Z AUTO 07006KT 10SM BKN060 08/M02 A3028 RMK AO2
Pressione 30.28 in
Visibilità 10.0 miglia
Nuvole Molto nuvoloso 6000 ft
Raffreddamento del vento 42 °F
Punto di rugiada 26 °F
Umidità 47%
Piovosità 0.00 in
Spessore del manto nevoso Non disponibile.
7:12 AM 5:00 PM
Luna crescente, 12% visible
METAR KHFJ 030410Z AUTO 07006KT 10SM BKN060 08/M02 A3028 RMK AO2

10-Day Weather Forecast

Almanac

Astronomia

Dec. 02, 2016 Alba Tramonto
Ora attuale
Crepuscolo civile
Crepuscolo nautico
Crepuscolo astronomico
Luna
Estensione della luce visibile
Lunghezza del giorno
Tomorrow will be .
, % of the Moon is Illuminated

Gli estremi di oggi

State Highs State Lows

Community

WunderPhotos

Upload Photos

1,955,411 foto caricate!

WunderBlog® & News

Nearby

Qualità dell'aria

  Qualità dell'aria Indice AQ Inquinante
Not available.

Profondità neve

Stazione Profondità Altitudine

Attività sismica

Città  Distanza Mag. Data & Ora
Minimo Magnitudo Mostrato è 2.5.

Temperature delle acque costiere

Località Temperatura

Stations

Stazioni meteo nelle vicinanze

Ubicazione della stazione Temp. Raffreddamento del vento Punto di rugiada Umidità Vento Precip. Alt. Aggiornato Tipo
                   

Watches & Warnings

There are currently no watches in effect.